Time;durP1;ratioP1;P1;durP2;ratioP2;P2;SDS_P1;SDS_P2;PMS_P1;PMS_P2;Temp;Humidity;BMP_temperature;BMP_pressure;BME280_temperature;BME280_humidity;BME280_pressure;Samples;Min_cycle;Max_cycle;Signal;HPM_P1;HPM_P2
2022/06/14 00:00:54;;;;;;;2.33;1.25;;;12.00;99.90;;;;;;4672819;28;9999695;-72
2022/06/14 00:03:21;;;;;;;3.73;1.27;;;11.90;99.90;;;;;;5025207;28;20029;-72
2022/06/14 00:05:47;;;;;;;5.13;1.20;;;11.80;99.90;;;;;;5027242;28;20148;-72
2022/06/14 00:08:14;;;;;;;2.83;1.38;;;11.80;99.90;;;;;;5022007;28;20581;-72
2022/06/14 00:10:40;;;;;;;2.88;1.23;;;11.70;99.90;;;;;;5015758;28;20108;-72
2022/06/14 00:13:06;;;;;;;3.15;1.27;;;11.60;99.90;;;;;;5024194;28;20435;-72
2022/06/14 00:15:32;;;;;;;2.30;1.20;;;11.50;99.90;;;;;;5021326;28;20030;-72
2022/06/14 00:17:58;;;;;;;3.60;1.55;;;11.50;99.90;;;;;;5019924;28;20034;-72
2022/06/14 00:20:23;;;;;;;4.70;1.35;;;11.40;99.90;;;;;;5017071;28;20609;-72
2022/06/14 00:22:51;;;;;;;4.50;1.40;;;11.30;99.90;;;;;;5015719;28;20389;-72
2022/06/14 00:25:25;;;;;;;3.38;1.67;;;11.30;99.90;;;;;;5017394;28;20065;-72
2022/06/14 00:27:52;;;;;;;7.18;1.60;;;11.20;99.90;;;;;;5024888;28;20025;-72
2022/06/14 00:30:19;;;;;;;2.47;1.60;;;11.10;99.90;;;;;;5018881;28;20037;-72
2022/06/14 00:32:44;;;;;;;2.80;1.52;;;11.10;99.90;;;;;;5020849;28;20021;-72
2022/06/14 00:35:10;;;;;;;3.42;1.58;;;11.00;99.90;;;;;;5019930;28;20073;-72
2022/06/14 00:37:35;;;;;;;3.10;1.67;;;10.90;99.90;;;;;;5022803;28;20391;-73
2022/06/14 00:40:02;;;;;;;4.93;1.67;;;10.90;99.90;;;;;;5017455;28;20037;-72
2022/06/14 00:42:28;;;;;;;3.20;1.67;;;10.90;99.90;;;;;;5018695;28;20053;-73
2022/06/14 00:45:23;;;;;;;3.75;1.48;;;10.90;99.90;;;;;;5018331;28;20033;-73
2022/06/14 00:48:06;;;;;;;2.45;1.60;;;10.80;99.90;;;;;;4981924;28;20642;-72
2022/06/14 00:50:52;;;;;;;7.10;2.03;;;10.80;99.90;;;;;;5015797;28;20033;-73
2022/06/14 00:53:25;;;;;;;3.42;1.60;;;10.90;99.90;;;;;;5019773;28;20025;-72
2022/06/14 00:56:20;;;;;;;4.78;2.10;;;10.90;99.90;;;;;;5025553;28;20065;-72
2022/06/14 00:58:50;;;;;;;4.97;2.13;;;11.00;99.90;;;;;;4965557;28;20038;-72
2022/06/14 01:01:23;;;;;;;5.70;1.80;;;11.00;99.90;;;;;;5023064;28;20393;-72
2022/06/14 01:04:00;;;;;;;;;;;11.00;99.90;;;;;;5013468;28;20119;-72
2022/06/14 01:06:42;;;;;;;4.40;1.83;;;11.00;99.90;;;;;;5025629;28;19913;-72
2022/06/14 01:09:16;;;;;;;2.58;1.70;;;11.00;99.90;;;;;;5020619;28;20076;-72
2022/06/14 01:11:47;;;;;;;4.82;1.70;;;11.00;99.90;;;;;;5021404;28;20057;-72
2022/06/14 01:14:16;;;;;;;2.45;1.65;;;11.00;99.90;;;;;;5026703;28;20034;-72
2022/06/14 01:16:42;;;;;;;4.13;1.67;;;11.00;99.90;;;;;;5025750;28;20425;-72
2022/06/14 01:19:14;;;;;;;3.83;1.35;;;10.90;99.90;;;;;;5022603;28;20037;-72
2022/06/14 01:21:40;;;;;;;4.60;1.90;;;10.80;99.90;;;;;;5023218;28;20315;-72
2022/06/14 01:24:06;;;;;;;1.95;1.60;;;10.80;99.90;;;;;;5016689;28;20965;-72
2022/06/14 01:26:33;;;;;;;3.97;1.73;;;10.80;99.90;;;;;;5016334;28;20021;-72
2022/06/14 01:29:02;;;;;;;3.75;1.45;;;10.80;99.90;;;;;;5021820;28;20094;-72
2022/06/14 01:31:30;;;;;;;3.92;1.70;;;10.80;99.90;;;;;;5023845;28;20043;-72
2022/06/14 01:34:01;;;;;;;4.15;1.85;;;10.80;99.90;;;;;;5024170;28;20056;-72
2022/06/14 01:36:32;;;;;;;5.80;2.08;;;10.70;99.90;;;;;;5026104;28;20033;-73
2022/06/14 01:39:04;;;;;;;3.80;2.03;;;10.70;99.90;;;;;;5021796;28;20382;-72
2022/06/14 01:41:58;;;;;;;4.45;2.22;;;10.60;99.90;;;;;;5026671;28;20029;-73
2022/06/14 01:44:45;;;;;;;3.10;1.85;;;10.60;99.90;;;;;;5016379;28;20544;-72
2022/06/14 01:47:19;;;;;;;6.07;2.10;;;10.50;99.90;;;;;;5026264;28;20327;-72
2022/06/14 01:53:01;;;;;;;4.88;1.88;;;10.50;99.90;;;;;;5012929;28;20520;-73
2022/06/14 01:55:55;;;;;;;3.97;1.70;;;10.40;99.90;;;;;;5021385;28;20021;-73
2022/06/14 01:58:41;;;;;;;3.92;1.90;;;10.30;99.90;;;;;;5011063;28;20108;-72
2022/06/14 02:01:23;;;;;;;2.95;1.83;;;10.30;99.90;;;;;;5022788;28;20025;-73
2022/06/14 02:07:25;;;;;;;4.03;1.85;;;10.20;99.90;;;;;;5022708;28;20040;-72
2022/06/14 02:10:02;;;;;;;8.02;2.35;;;10.10;99.90;;;;;;4991020;28;20034;-72
2022/06/14 02:12:57;;;;;;;4.53;1.98;;;10.10;99.90;;;;;;5025838;28;20057;-72
2022/06/14 02:15:38;;;;;;;4.15;1.90;;;10.00;99.90;;;;;;5019522;28;20040;-72
2022/06/14 02:18:20;;;;;;;5.47;2.35;;;10.00;99.90;;;;;;5018072;28;20326;-72
2022/06/14 02:20:59;;;;;;;3.78;1.83;;;9.90;99.90;;;;;;5022737;28;20107;-72
2022/06/14 02:23:29;;;;;;;4.50;2.15;;;9.90;99.90;;;;;;5024124;28;20033;-72
2022/06/14 02:26:00;;;;;;;3.28;1.70;;;9.80;99.90;;;;;;5019128;28;20030;-72
2022/06/14 02:28:41;;;;;;;4.13;1.73;;;9.80;99.90;;;;;;5024528;28;20393;-72
2022/06/14 02:31:31;;;;;;;2.33;1.50;;;9.70;99.90;;;;;;5015819;28;20033;-72
2022/06/14 02:34:02;;;;;;;4.35;2.03;;;9.70;99.90;;;;;;5020967;28;20029;-72
2022/06/14 02:36:35;;;;;;;4.97;2.08;;;9.60;99.90;;;;;;5017490;28;20120;-72
2022/06/14 02:39:11;;;;;;;6.10;2.10;;;9.70;99.90;;;;;;5015215;28;20045;-72
2022/06/14 02:41:58;;;;;;;5.82;1.80;;;9.70;99.90;;;;;;5017893;28;20080;-73
2022/06/14 02:44:36;;;;;;;3.67;1.70;;;9.60;99.90;;;;;;5024052;28;20310;-72
2022/06/14 02:47:08;;;;;;;3.85;1.85;;;9.60;99.90;;;;;;5022282;28;20038;-72
2022/06/14 02:49:42;;;;;;;4.38;1.70;;;9.50;99.90;;;;;;5013770;28;20033;-72
2022/06/14 02:52:26;;;;;;;4.32;2.05;;;9.50;99.90;;;;;;5016118;28;20304;-73
2022/06/14 02:54:58;;;;;;;4.32;1.83;;;9.60;99.90;;;;;;5021069;28;20481;-73
2022/06/14 02:57:31;;;;;;;3.60;1.80;;;9.50;99.90;;;;;;5017193;28;20030;-73
2022/06/14 03:00:05;;;;;;;2.75;1.70;;;9.50;99.90;;;;;;5015788;28;20060;-73
2022/06/14 03:02:38;;;;;;;5.57;1.90;;;9.50;99.90;;;;;;5023552;28;20044;-73
2022/06/14 03:05:19;;;;;;;4.18;1.83;;;9.50;99.90;;;;;;5013324;28;20041;-72
2022/06/14 03:07:50;;;;;;;3.65;1.83;;;9.60;99.90;;;;;;5015014;28;20200;-73
2022/06/14 03:10:16;;;;;;;3.95;1.92;;;9.60;99.90;;;;;;5016195;28;20331;-73
2022/06/14 03:12:54;;;;;;;4.57;1.70;;;9.60;99.90;;;;;;5019899;28;20655;-73
2022/06/14 03:15:23;;;;;;;5.75;1.80;;;9.60;99.90;;;;;;5023631;28;20024;-73
2022/06/14 03:18:29;;;;;;;3.58;1.80;;;9.60;99.90;;;;;;5013456;28;20036;-73
2022/06/14 03:20:58;;;;;;;4.43;1.83;;;9.60;99.90;;;;;;5028039;28;20033;-73
2022/06/14 03:23:44;;;;;;;4.07;2.08;;;9.60;99.90;;;;;;5024175;28;20029;-72
2022/06/14 03:26:35;;;;;;;3.55;1.80;;;9.60;99.90;;;;;;5020583;28;20021;-72
2022/06/14 03:29:09;;;;;;;5.82;1.75;;;9.60;99.90;;;;;;5009794;28;20038;-72
2022/06/14 03:31:44;;;;;;;5.75;2.08;;;9.70;99.90;;;;;;5015477;28;20114;-72
2022/06/14 03:34:38;;;;;;;4.07;1.98;;;9.70;99.90;;;;;;5020214;28;20049;-73
2022/06/14 03:37:04;;;;;;;5.57;1.90;;;9.80;99.90;;;;;;5021925;28;20120;-73
2022/06/14 03:39:34;;;;;;;6.13;1.90;;;9.80;99.90;;;;;;5009334;28;20339;-72
2022/06/14 03:42:03;;;;;;;6.38;2.08;;;9.90;99.90;;;;;;5022122;28;20077;-72
2022/06/14 03:44:31;;;;;;;3.55;1.92;;;10.00;99.90;;;;;;5024355;28;20588;-73
2022/06/14 03:47:18;;;;;;;4.10;2.00;;;10.00;99.90;;;;;;5007171;28;20383;-72
2022/06/14 03:49:57;;;;;;;4.05;2.00;;;10.20;99.90;;;;;;5019240;28;20034;-72
2022/06/14 03:53:03;;;;;;;2.97;1.92;;;10.30;99.90;;;;;;5024333;28;20044;-72
2022/06/14 03:55:49;;;;;;;3.55;1.88;;;10.40;99.90;;;;;;5008559;28;20501;-72
2022/06/14 03:58:42;;;;;;;2.72;1.80;;;10.50;99.90;;;;;;5008714;28;20183;-73
2022/06/14 04:01:15;;;;;;;3.30;2.45;;;10.60;99.90;;;;;;5023759;28;20116;-73
2022/06/14 04:04:31;;;;;;;2.93;1.90;;;10.60;99.90;;;;;;5023564;28;20033;-73
2022/06/14 04:07:15;;;;;;;3.55;1.95;;;10.80;99.90;;;;;;5018704;28;20288;-73
2022/06/14 04:10:06;;;;;;;3.58;2.25;;;10.90;99.90;;;;;;5019960;28;20084;-73
2022/06/14 04:12:59;;;;;;;3.55;2.13;;;11.20;99.90;;;;;;5021352;28;20024;-74
2022/06/14 04:15:44;;;;;;;3.13;2.00;;;12.50;99.90;;;;;;5020569;28;20060;-73
2022/06/14 04:18:51;;;;;;;2.90;1.90;;;14.60;99.90;;;;;;5017752;28;20108;-73
2022/06/14 04:21:37;;;;;;;4.22;1.85;;;16.10;99.90;;;;;;5014387;28;22194;-73
2022/06/14 04:24:28;;;;;;;4.65;2.00;;;16.80;99.90;;;;;;5020900;28;20645;-73
2022/06/14 04:26:57;;;;;;;3.63;1.92;;;16.70;99.90;;;;;;5020532;28;20322;-73
2022/06/14 04:29:51;;;;;;;2.20;1.63;;;16.20;99.90;;;;;;5014840;28;20029;-73
2022/06/14 04:32:34;;;;;;;2.92;1.70;;;15.60;99.90;;;;;;5009372;28;20056;-73
2022/06/14 04:35:21;;;;;;;4.25;1.90;;;14.90;99.90;;;;;;5016577;28;20050;-73
2022/06/14 04:38:10;;;;;;;3.20;1.85;;;14.20;99.90;;;;;;5023326;28;20018;-72
2022/06/14 04:40:44;;;;;;;3.88;1.73;;;13.70;99.90;;;;;;5018446;28;20051;-72
2022/06/14 04:43:15;;;;;;;5.60;1.83;;;13.10;99.90;;;;;;5019800;28;20033;-72
2022/06/14 04:45:54;;;;;;;3.10;1.80;;;13.10;99.90;;;;;;5007659;28;20034;-72
2022/06/14 04:48:24;;;;;;;6.55;1.85;;;13.00;99.90;;;;;;5012961;28;20489;-73
2022/06/14 04:51:05;;;;;;;4.03;1.80;;;12.90;99.90;;;;;;5017711;28;20036;-72
2022/06/14 04:53:35;;;;;;;3.15;1.60;;;12.90;99.90;;;;;;5018622;28;20049;-74
2022/06/14 04:56:08;;;;;;;3.55;1.70;;;12.90;99.90;;;;;;5027429;28;20036;-72
2022/06/14 04:58:52;;;;;;;4.10;1.70;;;13.10;99.90;;;;;;5020002;28;20096;-73
2022/06/14 05:01:37;;;;;;;5.50;1.95;;;13.20;99.90;;;;;;5017312;28;20032;-73
2022/06/14 05:04:14;;;;;;;3.38;1.58;;;13.40;99.90;;;;;;5017336;28;20025;-73
2022/06/14 05:06:50;;;;;;;3.15;1.70;;;13.50;99.90;;;;;;5019592;28;20025;-73
2022/06/14 05:09:20;;;;;;;4.30;1.80;;;13.60;99.90;;;;;;5023803;28;20029;-73
2022/06/14 05:12:08;;;;;;;4.57;1.85;;;13.70;99.90;;;;;;5027656;28;20033;-73
2022/06/14 05:14:53;;;;;;;3.50;1.77;;;13.70;99.90;;;;;;5025252;28;20040;-72
2022/06/14 05:17:26;;;;;;;6.32;1.45;;;13.80;99.90;;;;;;5016710;28;20116;-73
2022/06/14 05:20:05;;;;;;;4.78;1.63;;;13.80;99.90;;;;;;5019576;28;20402;-73
2022/06/14 05:22:54;;;;;;;6.20;1.85;;;13.90;99.90;;;;;;5027104;28;20041;-73
2022/06/14 05:25:21;;;;;;;4.13;1.85;;;14.00;99.90;;;;;;5020630;28;20450;-73
2022/06/14 05:28:08;;;;;;;2.90;1.60;;;14.10;99.90;;;;;;5025406;28;20036;-73
2022/06/14 05:30:55;;;;;;;3.63;1.73;;;14.30;99.90;;;;;;5016450;28;20029;-73
2022/06/14 05:33:30;;;;;;;4.68;1.70;;;14.40;99.90;;;;;;5025856;28;20057;-72
2022/06/14 05:36:13;;;;;;;2.60;1.77;;;14.50;99.90;;;;;;5021987;28;20076;-73
2022/06/14 05:38:41;;;;;;;;;;;14.60;99.90;;;;;;5023537;28;20116;-73
2022/06/14 05:41:18;;;;;;;5.13;1.60;;;14.70;99.90;;;;;;5017487;28;19909;-72
2022/06/14 05:44:00;;;;;;;8.73;1.75;;;14.80;99.90;;;;;;5018915;28;20444;-73
2022/06/14 05:46:41;;;;;;;3.65;1.60;;;14.90;99.90;;;;;;5011660;28;20112;-73
2022/06/14 05:49:21;;;;;;;2.42;1.42;;;15.20;99.90;;;;;;5015138;28;20026;-73
2022/06/14 05:52:04;;;;;;;9.43;1.60;;;15.10;99.90;;;;;;5016648;28;20021;-72
2022/06/14 05:54:34;;;;;;;3.90;1.83;;;15.20;99.90;;;;;;5020689;28;20056;-72
2022/06/14 05:57:26;;;;;;;4.43;1.73;;;15.20;99.90;;;;;;5023734;28;20041;-73
2022/06/14 06:00:00;;;;;;;3.72;1.60;;;15.10;99.90;;;;;;5010168;28;20041;-72
2022/06/14 06:02:55;;;;;;;4.25;1.83;;;15.10;99.90;;;;;;5023375;28;20356;-72
2022/06/14 06:05:26;;;;;;;4.05;1.50;;;15.10;99.90;;;;;;5025213;28;20692;-73
2022/06/14 06:08:10;;;;;;;3.70;1.50;;;15.10;99.90;;;;;;5026966;28;20156;-72
2022/06/14 06:10:40;;;;;;;4.43;1.67;;;15.10;99.90;;;;;;5013124;28;20033;-73
2022/06/14 06:13:31;;;;;;;4.45;1.77;;;15.20;99.90;;;;;;5024241;28;20650;-73
2022/06/14 06:16:09;;;;;;;3.83;1.40;;;15.40;99.90;;;;;;5015314;28;20717;-72
2022/06/14 06:18:47;;;;;;;4.13;1.60;;;15.60;99.90;;;;;;5017622;28;20460;-73
2022/06/14 06:21:29;;;;;;;2.63;1.50;;;15.70;99.90;;;;;;5027753;28;20033;-73
2022/06/14 06:24:00;;;;;;;3.90;1.55;;;15.90;99.90;;;;;;5023094;28;20409;-73
2022/06/14 06:26:30;;;;;;;3.08;1.67;;;16.00;99.90;;;;;;5020747;28;20113;-73
2022/06/14 06:29:06;;;;;;;8.43;1.52;;;16.00;99.90;;;;;;5018871;28;20091;-73
2022/06/14 06:31:35;;;;;;;2.15;1.30;;;16.00;99.90;;;;;;5018638;28;20021;-74
2022/06/14 06:34:04;;;;;;;1.52;1.30;;;16.00;99.90;;;;;;5020596;28;20033;-72
2022/06/14 06:36:46;;;;;;;5.35;1.50;;;16.10;99.90;;;;;;5024830;28;20393;-73
2022/06/14 06:39:50;;;;;;;5.75;1.58;;;16.20;99.90;;;;;;5019660;28;20480;-72
2022/06/14 06:42:48;;;;;;;5.03;1.52;;;16.40;99.90;;;;;;5015633;28;20102;-73
2022/06/14 06:45:28;;;;;;;4.57;1.83;;;16.60;99.90;;;;;;5013942;28;20048;-72
2022/06/14 06:48:05;;;;;;;4.53;1.63;;;16.80;99.90;;;;;;5012501;28;20054;-72
2022/06/14 06:50:35;;;;;;;3.33;1.30;;;17.00;99.90;;;;;;5024105;28;20060;-73
2022/06/14 06:53:01;;;;;;;6.50;1.65;;;17.10;99.90;;;;;;5027291;28;20037;-72
2022/06/14 06:55:48;;;;;;;4.20;1.50;;;17.30;99.90;;;;;;5026324;28;20505;-73
2022/06/14 06:58:26;;;;;;;4.95;1.73;;;17.40;99.90;;;;;;5028982;28;20034;-72
2022/06/14 07:00:55;;;;;;;5.07;1.50;;;17.50;99.90;;;;;;5018017;28;20057;-72
2022/06/14 07:03:31;;;;;;;7.15;1.67;;;17.70;99.90;;;;;;5013163;28;20037;-72
2022/06/14 07:06:01;;;;;;;6.40;1.70;;;17.80;99.90;;;;;;5019681;28;20546;-73
2022/06/14 07:09:04;;;;;;;5.13;1.58;;;18.10;99.90;;;;;;5023734;28;20048;-72
2022/06/14 07:11:49;;;;;;;5.05;1.38;;;18.20;99.90;;;;;;4936678;28;20548;-72
2022/06/14 07:14:43;;;;;;;7.63;1.67;;;18.50;99.90;;;;;;5028424;28;20056;-72
2022/06/14 07:17:24;;;;;;;4.03;1.38;;;18.70;99.90;;;;;;5021618;28;20047;-73
2022/06/14 07:20:12;;;;;;;4.80;1.58;;;18.90;99.90;;;;;;5020500;28;20060;-72
2022/06/14 07:22:45;;;;;;;2.97;1.27;;;18.90;99.90;;;;;;5021259;28;20089;-78
2022/06/14 07:25:43;;;;;;;5.75;1.58;;;19.00;99.90;;;;;;5030764;28;20029;-78
2022/06/14 07:28:22;;;;;;;5.28;1.55;;;19.10;99.30;;;;;;4986244;28;20038;-78
2022/06/14 07:30:52;;;;;;;5.93;1.95;;;19.10;97.80;;;;;;5028424;28;20029;-78
2022/06/14 07:33:20;;;;;;;8.00;1.83;;;19.10;97.70;;;;;;5023316;28;20429;-78
2022/06/14 07:35:52;;;;;;;7.15;1.83;;;19.20;97.80;;;;;;5024477;28;20097;-77
2022/06/14 07:38:36;;;;;;;8.88;1.95;;;19.20;97.00;;;;;;5016269;28;20057;-75
2022/06/14 07:41:16;;;;;;;5.00;1.65;;;19.30;96.30;;;;;;5024143;28;20065;-73
2022/06/14 07:43:58;;;;;;;6.22;1.50;;;19.30;96.80;;;;;;5030500;28;20033;-73
2022/06/14 07:46:49;;;;;;;6.30;1.75;;;19.40;96.50;;;;;;5027984;28;20021;-73
2022/06/14 07:49:23;;;;;;;5.95;1.63;;;19.60;95.80;;;;;;5024655;28;20069;-73
2022/06/14 07:52:01;;;;;;;4.82;1.58;;;19.70;95.30;;;;;;5017482;28;20036;-73
2022/06/14 07:54:31;;;;;;;4.25;1.30;;;19.90;94.90;;;;;;5024866;28;20099;-73
2022/06/14 07:57:11;;;;;;;7.78;1.63;;;20.10;94.50;;;;;;5024487;28;20029;-73
2022/06/14 07:59:46;;;;;;;6.72;1.48;;;20.30;92.80;;;;;;5022562;28;20033;-73
2022/06/14 08:02:30;;;;;;;7.50;1.40;;;;;;;;;;5027354;28;20035;-73
2022/06/14 08:05:04;;;;;;;7.15;1.42;;;20.70;91.20;;;;;;5027862;28;20401;-73
2022/06/14 08:07:31;;;;;;;4.95;1.30;;;20.70;91.20;;;;;;5026374;28;20033;-74
2022/06/14 08:10:04;;;;;;;7.30;1.48;;;20.90;91.20;;;;;;5016780;28;20520;-74
2022/06/14 08:12:37;;;;;;;4.35;1.38;;;20.90;89.50;;;;;;5024722;28;20033;-74
2022/06/14 08:18:47;;;;;;;9.05;1.73;;;21.20;85.50;;;;;;4998574;28;20044;-74
2022/06/14 08:21:25;;;;;;;6.15;1.50;;;21.30;85.70;;;;;;5018728;28;20028;-73
2022/06/14 08:24:14;;;;;;;4.10;1.17;;;21.40;83.80;;;;;;5022740;28;20064;-74
2022/06/14 08:26:48;;;;;;;8.05;1.92;;;21.70;83.80;;;;;;5024547;28;20029;-73
2022/06/14 08:29:48;;;;;;;4.15;1.30;;;21.60;82.50;;;;;;5020928;28;20029;-73
2022/06/14 08:32:19;;;;;;;6.57;1.35;;;21.50;82.40;;;;;;5019024;28;20394;-73
2022/06/14 08:35:05;;;;;;;7.00;1.60;;;21.50;80.80;;;;;;5022665;28;20063;-73
2022/06/14 08:37:42;;;;;;;8.25;1.67;;;21.30;83.70;;;;;;5026564;28;20045;-73
2022/06/14 08:40:11;;;;;;;8.27;1.58;;;21.40;83.40;;;;;;5027534;28;20493;-73
2022/06/14 08:42:42;;;;;;;6.95;1.83;;;21.40;83.70;;;;;;5024680;28;20033;-74
2022/06/14 08:45:19;;;;;;;3.60;1.17;;;21.50;83.60;;;;;;5016391;28;20069;-73
2022/06/14 08:48:06;;;;;;;5.80;1.50;;;21.40;81.40;;;;;;5018338;28;20061;-74
2022/06/14 08:50:59;;;;;;;4.28;1.50;;;21.50;80.90;;;;;;5010752;28;20393;-74
2022/06/14 08:53:50;;;;;;;6.03;1.48;;;21.70;81.90;;;;;;5026988;28;20029;-74
2022/06/14 08:56:22;;;;;;;6.47;1.52;;;21.90;78.90;;;;;;5021672;28;20496;-73
2022/06/14 08:59:09;;;;;;;4.07;1.30;;;22.20;79.10;;;;;;5019923;28;20493;-74
2022/06/14 09:01:44;;;;;;;4.78;1.45;;;22.30;79.70;;;;;;5015542;28;20033;-74
2022/06/14 09:04:24;;;;;;;4.82;1.70;;;22.40;77.10;;;;;;5024274;28;20112;-74
2022/06/14 09:07:10;;;;;;;5.30;1.80;;;22.10;76.90;;;;;;5023505;28;20037;-74
2022/06/14 09:09:42;;;;;;;8.02;1.60;;;22.20;76.50;;;;;;5018960;28;20116;-72
2022/06/14 09:12:20;;;;;;;6.25;1.30;;;22.20;76.10;;;;;;5025902;28;20113;-72
2022/06/14 09:15:12;;;;;;;7.65;1.52;;;22.20;75.30;;;;;;5026387;28;20029;-72
2022/06/14 09:18:16;;;;;;;4.40;1.17;;;22.20;76.40;;;;;;5014938;28;20026;-72
2022/06/14 09:21:21;;;;;;;7.40;1.25;;;22.30;76.40;;;;;;5000951;28;20045;-72
2022/06/14 09:23:53;;;;;;;7.43;1.50;;;22.50;75.10;;;;;;5025467;28;20048;-72
2022/06/14 09:26:28;;;;;;;5.10;1.25;;;22.60;75.00;;;;;;5020863;28;20060;-72
2022/06/14 09:29:37;;;;;;;3.78;1.20;;;22.70;72.60;;;;;;5022432;28;20029;-73
2022/06/14 09:32:21;;;;;;;8.38;1.23;;;22.80;71.60;;;;;;5019255;28;20112;-72
2022/06/14 09:35:22;;;;;;;6.88;1.38;;;22.80;70.10;;;;;;5021011;28;20044;-72
2022/06/14 09:38:25;;;;;;;3.90;1.10;;;22.90;69.60;;;;;;5009909;28;20080;-72
2022/06/14 09:41:11;;;;;;;6.30;1.48;;;22.80;68.30;;;;;;5026165;28;20108;-72
2022/06/14 09:43:49;;;;;;;7.65;1.30;;;22.70;68.90;;;;;;4671240;28;10000496;-71
2022/06/14 09:46:23;;;;;;;4.53;1.30;;;22.70;69.10;;;;;;5022472;28;20034;-71
2022/06/14 09:49:11;;;;;;;4.03;1.17;;;22.70;70.50;;;;;;5017161;28;20057;-71
2022/06/14 09:52:14;;;;;;;7.15;1.80;;;22.70;70.20;;;;;;5018309;28;20120;-71
2022/06/14 09:54:58;;;;;;;4.37;1.40;;;22.70;69.60;;;;;;5023054;28;20025;-71
2022/06/14 09:57:46;;;;;;;6.45;1.48;;;22.70;71.40;;;;;;5016584;28;20116;-71
2022/06/14 10:00:26;;;;;;;5.32;1.73;;;22.80;71.00;;;;;;5019394;28;20080;-71
2022/06/14 10:03:11;;;;;;;6.13;1.60;;;22.90;69.30;;;;;;5020246;28;20260;-71
2022/06/14 10:06:09;;;;;;;3.05;1.10;;;22.80;68.60;;;;;;5017968;28;20516;-71
2022/06/14 10:09:18;;;;;;;6.65;1.20;;;22.80;69.00;;;;;;4992297;28;20119;-70
2022/06/14 10:12:06;;;;;;;6.70;1.50;;;22.80;67.80;;;;;;5022696;28;20033;-71
2022/06/14 10:14:44;;;;;;;5.38;1.35;;;23.00;69.10;;;;;;5019512;28;20031;-70
2022/06/14 10:17:47;;;;;;;4.45;1.30;;;23.00;68.20;;;;;;5017941;28;20656;-71
2022/06/14 10:20:39;;;;;;;5.45;1.50;;;23.10;67.50;;;;;;5017191;28;20044;-71
2022/06/14 10:23:17;;;;;;;4.47;1.17;;;23.10;66.90;;;;;;5019642;28;20064;-71
2022/06/14 10:28:43;;;;;;;4.10;1.17;;;23.10;64.70;;;;;;5020370;28;20168;-72
2022/06/14 10:31:32;;;;;;;5.85;1.45;;;22.80;65.40;;;;;;5023737;28;20087;-71
2022/06/14 10:34:02;;;;;;;9.40;1.70;;;22.60;66.70;;;;;;5013360;28;20041;-70
2022/06/14 10:36:42;;;;;;;5.78;1.30;;;22.60;66.50;;;;;;5021568;28;20033;-72
2022/06/14 10:39:34;;;;;;;4.25;1.33;;;22.70;66.00;;;;;;5016144;28;20121;-71
2022/06/14 10:42:17;;;;;;;5.65;1.60;;;22.80;66.90;;;;;;5018561;28;20256;-70
2022/06/14 10:45:09;;;;;;;8.50;1.65;;;22.90;65.30;;;;;;5018194;28;20122;-71
2022/06/14 10:48:01;;;;;;;3.83;1.00;;;22.90;65.30;;;;;;5019947;28;20037;-71
2022/06/14 10:50:31;;;;;;;3.63;1.33;;;23.10;64.70;;;;;;5012720;28;20108;-71
2022/06/14 10:53:09;;;;;;;9.07;1.63;;;23.20;64.00;;;;;;5026773;28;20112;-71
2022/06/14 10:56:00;;;;;;;5.32;1.27;;;23.30;65.10;;;;;;5021317;28;20113;-71
2022/06/14 10:58:47;;;;;;;5.40;1.20;;;23.30;61.80;;;;;;5020535;28;20033;-71
2022/06/14 11:01:32;;;;;;;7.32;1.23;;;23.10;65.40;;;;;;5007582;28;20059;-71
2022/06/14 11:04:17;;;;;;;5.20;1.23;;;23.00;64.00;;;;;;5016167;28;20081;-71
2022/06/14 11:07:09;;;;;;;7.25;1.50;;;22.90;64.70;;;;;;5014598;28;20088;-71
2022/06/14 11:09:52;;;;;;;5.03;1.58;;;23.00;64.50;;;;;;5017987;28;20040;-70
2022/06/14 11:12:36;;;;;;;5.67;1.70;;;23.20;63.90;;;;;;5015960;28;20129;-70
2022/06/14 11:15:30;;;;;;;4.18;1.30;;;23.30;81.20;;;;;;5014850;28;20064;-70
2022/06/14 11:18:18;;;;;;;7.95;0.93;;;23.50;75.30;;;;;;5008985;28;20029;-70
2022/06/14 11:21:00;;;;;;;2.55;1.08;;;23.70;78.80;;;;;;5016676;28;20044;-70
2022/06/14 11:23:45;;;;;;;5.88;1.30;;;23.70;76.20;;;;;;5014230;28;20026;-70
2022/06/14 11:26:35;;;;;;;5.05;1.23;;;23.70;61.30;;;;;;5026688;28;20120;-71
2022/06/14 11:29:18;;;;;;;7.47;1.40;;;23.80;61.90;;;;;;5015760;28;20494;-71
2022/06/14 11:31:58;;;;;;;4.78;1.58;;;23.80;59.30;;;;;;5020385;28;20049;-71
2022/06/14 11:34:42;;;;;;;8.18;1.63;;;23.80;58.90;;;;;;5018911;28;20052;-71
2022/06/14 11:37:45;;;;;;;4.65;1.13;;;23.90;59.90;;;;;;5020551;28;20022;-71
2022/06/14 11:40:18;;;;;;;4.68;1.00;;;24.10;59.30;;;;;;5021040;28;20029;-71
2022/06/14 11:42:50;;;;;;;4.82;1.10;;;24.30;58.80;;;;;;5024578;28;20056;-71
2022/06/14 11:45:43;;;;;;;5.65;1.10;;;24.40;59.00;;;;;;5022414;28;20029;-71
2022/06/14 11:48:19;;;;;;;6.35;1.25;;;24.50;59.00;;;;;;5026677;28;20038;-72
2022/06/14 11:51:09;;;;;;;4.50;0.90;;;24.70;59.10;;;;;;5022209;28;20034;-71
2022/06/14 11:54:00;;;;;;;3.88;1.10;;;24.90;57.40;;;;;;5023425;28;20036;-71
2022/06/14 11:56:37;;;;;;;4.47;1.30;;;25.00;55.00;;;;;;5023816;28;20018;-71
2022/06/14 11:59:43;;;;;;;4.15;1.00;;;24.80;55.30;;;;;;5018557;28;20067;-71
2022/06/14 12:02:21;;;;;;;6.65;1.33;;;24.80;56.50;;;;;;5019945;28;20091;-71
2022/06/14 12:05:05;;;;;;;5.68;1.20;;;24.80;56.90;;;;;;5013487;28;20080;-71
2022/06/14 12:07:46;;;;;;;2.38;0.80;;;24.70;56.20;;;;;;5015685;28;20022;-71
2022/06/14 12:10:30;;;;;;;3.38;1.00;;;24.70;56.20;;;;;;5030972;28;20029;-71
2022/06/14 12:13:11;;;;;;;2.38;0.90;;;24.70;57.10;;;;;;5009258;28;20112;-71
2022/06/14 12:15:55;;;;;;;6.20;1.05;;;24.60;57.20;;;;;;5015372;28;20026;-71
2022/06/14 12:18:24;;;;;;;4.22;0.90;;;24.60;56.90;;;;;;5008519;28;20030;-71
2022/06/14 12:21:04;;;;;;;3.47;0.93;;;24.60;56.40;;;;;;5018841;28;20473;-71
2022/06/14 12:23:38;;;;;;;5.03;1.10;;;24.70;56.90;;;;;;5021616;28;20140;-71
2022/06/14 12:26:40;;;;;;;4.15;1.17;;;24.70;57.10;;;;;;5029929;28;20536;-71
2022/06/14 12:29:23;;;;;;;4.53;0.95;;;24.80;56.70;;;;;;5013219;28;20486;-71
2022/06/14 12:31:48;;;;;;;6.30;1.10;;;24.80;56.60;;;;;;5022320;28;20033;-71
2022/06/14 12:34:29;;;;;;;6.53;0.90;;;24.80;56.20;;;;;;5023069;28;20108;-71
2022/06/14 12:37:23;;;;;;;4.72;1.27;;;24.90;56.70;;;;;;5017720;28;20026;-71
2022/06/14 12:40:06;;;;;;;;;;;25.20;55.80;;;;;;5023698;28;20033;-71
2022/06/14 12:42:56;;;;;;;4.22;1.20;;;25.20;54.20;;;;;;5011594;28;19980;-71
2022/06/14 12:45:33;;;;;;;5.68;1.20;;;25.20;54.10;;;;;;5007719;28;20034;-71
2022/06/14 12:48:07;;;;;;;4.30;1.05;;;25.40;76.00;;;;;;5022146;28;20038;-71
2022/06/14 12:50:38;;;;;;;9.45;1.30;;;25.40;53.70;;;;;;5023561;28;20029;-71
2022/06/14 12:53:20;;;;;;;3.85;1.05;;;25.60;53.70;;;;;;5021231;28;20436;-71
2022/06/14 12:55:56;;;;;;;3.85;1.08;;;25.70;52.60;;;;;;5006061;28;20540;-71
2022/06/14 12:58:41;;;;;;;5.18;1.10;;;25.90;52.50;;;;;;5018011;28;20035;-71
2022/06/14 13:01:21;;;;;;;6.22;1.05;;;26.10;51.80;;;;;;5021041;28;20305;-71
2022/06/14 13:04:01;;;;;;;2.78;0.90;;;26.30;51.50;;;;;;5023974;28;20036;-72
2022/06/14 13:06:36;;;;;;;4.35;1.23;;;26.40;50.90;;;;;;5013366;28;20050;-71
2022/06/14 13:09:16;;;;;;;5.93;1.17;;;26.50;51.80;;;;;;5019158;28;20108;-71
2022/06/14 13:12:14;;;;;;;3.67;0.93;;;26.60;50.90;;;;;;5017832;28;20354;-71
2022/06/14 13:15:16;;;;;;;4.30;0.95;;;26.60;50.60;;;;;;5023623;28;20030;-71
2022/06/14 13:17:57;;;;;;;5.07;1.40;;;26.50;51.80;;;;;;5015866;28;20032;-71
2022/06/14 13:20:58;;;;;;;3.80;1.00;;;26.40;50.60;;;;;;5007693;28;20033;-71
2022/06/14 13:23:41;;;;;;;2.50;0.95;;;26.40;50.10;;;;;;5022587;28;20037;-71
2022/06/14 13:26:20;;;;;;;3.45;0.90;;;26.50;49.60;;;;;;5023982;28;20032;-70
2022/06/14 13:29:11;;;;;;;2.85;1.05;;;26.60;51.10;;;;;;5022170;28;20367;-71
2022/06/14 13:31:45;;;;;;;5.40;1.40;;;26.70;50.20;;;;;;5018933;28;20042;-71
2022/06/14 13:34:51;;;;;;;3.67;0.77;;;26.60;49.10;;;;;;5017701;28;20103;-71
2022/06/14 13:37:52;;;;;;;5.47;1.10;;;26.60;49.30;;;;;;5010152;28;20036;-71
2022/06/14 13:40:28;;;;;;;4.10;1.00;;;26.60;49.10;;;;;;5013107;28;20041;-71
2022/06/14 13:42:57;;;;;;;4.25;1.20;;;26.50;50.30;;;;;;5022826;28;20051;-71
2022/06/14 13:45:40;;;;;;;3.78;0.93;;;26.40;50.10;;;;;;5024684;28;20438;-71
2022/06/14 13:48:22;;;;;;;2.75;1.00;;;26.50;49.90;;;;;;5035690;28;20559;-70
2022/06/14 13:51:09;;;;;;;3.88;1.00;;;26.70;50.50;;;;;;5021019;28;20555;-71
2022/06/14 13:54:00;;;;;;;5.63;1.10;;;26.80;51.20;;;;;;5021505;28;20048;-71
2022/06/14 13:56:39;;;;;;;2.83;1.10;;;26.50;51.60;;;;;;5024531;28;20481;-71
2022/06/14 13:59:13;;;;;;;4.60;1.10;;;26.40;51.00;;;;;;5022303;28;20453;-71
2022/06/14 14:01:51;;;;;;;3.83;0.80;;;26.30;50.60;;;;;;5023372;28;20033;-71
2022/06/14 14:04:48;;;;;;;5.38;1.10;;;26.20;50.70;;;;;;5038935;28;20306;-71
2022/06/14 14:07:38;;;;;;;5.30;1.25;;;26.20;52.50;;;;;;5019755;28;20029;-70
2022/06/14 14:10:31;;;;;;;2.92;1.10;;;26.00;53.20;;;;;;4985609;28;20045;-70